Terminal Aerodrome Forecast
Issued by NWS

Home | Current Version | Previous Version | Text Only | Print | Product List | Glossary On
Versions: 1 2 3 4 5 6 7 8 9 10 11 12 13 14
000
FTAK31 PAJN 070500
TAFAGY
TAF
PAGY 070522Z 0706/0806 21008KT P6SM BKN200
     FM071400 21007KT P6SM BKN100
     FM071800 21012KT P6SM FEW060 OVC100
     FM072200 21013KT P6SM BKN060 OVC100
     FM080400 21010KT P6SM VCSH BKN050 OVC080
      AMD LTD TO CLD VIS AND WIND=

USA.gov is the U.S. government's official web portal to all federal, state and local government web resources and services.